Scottsburg, Oregon
Current Conditions -  °F | °C
As of 11:35 AM on Friday 28 Nov 2014 (Local Time) from KOTH Reporting Station
Overcast Overcast  
Wind Chill: 59°   Ceiling: 1500
Heat Index: 59°   Visibility: 3mi
Dew Point: 59°   Wind: 21mph
Humidity: 100%   Direction: 210°SSW
Pressure: 29.67"   Gusts: 28mph
Location:  43.65°N, 123.82°W
Report Text: KOTH 281935Z 21018G24KT 3SM OVC015 15/15 A2967 RMK AO1 +SHRA P0002
Loading
Personal Weather Stations






























Interactive Weather Map New forecast layout! Learn more

10-Day Weather Forecast

Advertisements
Track Severe Weather on mobile